Augusta Township, Michigan
Current Conditions -  °F | °C
As of 10:53 AM on Wednesday 22 Oct 2014 (Local Time) from KARB Reporting Station
Overcast Overcast  
Wind Chill: 41°   Ceiling: 1500
Heat Index: 46°   Visibility: 10mi
Dew Point: 37°   Wind: 9mph
Humidity: 71%   Direction: 50°NE
Pressure: 30.34"   Gusts: NA
Location:  42.0828°N, 83.683°W
Report Text: KARB 221453Z 05008KT 10SM OVC015 08/03 A3034 RMK AO2 SLP278 T00780028 51017
Loading
Personal Weather Stations






























Interactive Weather Map
Tropical Storm Tracking
New forecast layout! Learn more

10-Day Weather Forecast

Advertisements
Track Severe Weather on mobile